createdAt,value
2017-11-15T00:01:02.968Z,22.70
2017-11-15T00:03:31.215Z,24.13
2017-11-15T00:05:59.467Z,22.87
2017-11-15T00:08:27.735Z,23.63
2017-11-15T00:10:55.989Z,24.13
2017-11-15T00:13:24.230Z,24.27
2017-11-15T00:15:52.503Z,25.13
2017-11-15T00:18:20.754Z,24.53
2017-11-15T00:20:49.007Z,22.23
2017-11-15T00:23:17.458Z,23.73
2017-11-15T00:25:45.699Z,24.90
2017-11-15T00:28:13.946Z,22.70
2017-11-15T00:30:42.214Z,24.87
2017-11-15T00:33:10.463Z,24.93
2017-11-15T00:35:38.711Z,23.23
2017-11-15T00:38:06.979Z,24.23
2017-11-15T00:40:35.455Z,26.63
2017-11-15T00:43:04.463Z,23.90
2017-11-15T00:45:33.181Z,23.07
2017-11-15T00:48:01.516Z,23.10
2017-11-15T00:50:30.530Z,25.87
2017-11-15T00:52:58.804Z,21.30
2017-11-15T00:55:27.047Z,23.53
2017-11-15T00:57:55.290Z,24.80
2017-11-15T01:00:23.559Z,23.63
2017-11-15T01:02:51.816Z,23.67
2017-11-15T01:05:20.067Z,22.03
2017-11-15T01:07:48.915Z,22.23
2017-11-15T01:10:17.154Z,23.57
2017-11-15T01:12:45.408Z,24.20
2017-11-15T01:15:13.675Z,24.17
2017-11-15T01:17:42.697Z,22.20
2017-11-15T01:20:10.943Z,24.83
2017-11-15T01:22:39.207Z,21.47
2017-11-15T01:25:07.455Z,23.90
2017-11-15T01:27:35.700Z,23.33
2017-11-15T01:30:04.326Z,21.97
2017-11-15T01:32:32.574Z,20.47
2017-11-15T01:35:00.823Z,22.23
2017-11-15T01:37:29.095Z,22.17
2017-11-15T01:39:58.107Z,23.07
2017-11-15T01:42:26.615Z,21.60
2017-11-15T01:44:54.884Z,21.90
2017-11-15T01:47:23.127Z,23.60
2017-11-15T01:49:51.370Z,21.33
2017-11-15T01:52:19.727Z,21.20
2017-11-15T01:54:47.971Z,21.23
2017-11-15T01:57:16.218Z,22.80
2017-11-15T01:59:44.488Z,21.63
2017-11-15T02:02:12.738Z,21.33
2017-11-15T02:04:40.987Z,21.10
2017-11-15T02:07:09.268Z,21.53
2017-11-15T02:09:37.513Z,20.20
2017-11-15T02:12:05.754Z,23.20
2017-11-15T02:14:34.518Z,22.00
2017-11-15T02:17:02.766Z,21.37
2017-11-15T02:19:31.015Z,21.70
2017-11-15T02:21:59.279Z,20.17
2017-11-15T02:24:27.526Z,21.10
2017-11-15T02:26:55.769Z,21.13
2017-11-15T02:29:24.805Z,22.53
2017-11-15T02:31:53.051Z,21.40
2017-11-15T02:34:21.293Z,21.60
2017-11-15T02:36:49.628Z,20.73
2017-11-15T02:39:17.871Z,21.17
2017-11-15T02:41:46.128Z,22.70
2017-11-15T02:44:14.449Z,22.90
2017-11-15T02:46:42.690Z,22.50
2017-11-15T02:49:10.935Z,23.80
2017-11-15T02:51:39.211Z,24.53
2017-11-15T02:54:07.468Z,24.40
2017-11-15T02:56:35.704Z,24.10
2017-11-15T02:59:04.887Z,22.70
2017-11-15T03:01:33.132Z,22.90
2017-11-15T03:04:01.375Z,23.70
2017-11-15T03:06:29.642Z,22.23
2017-11-15T03:08:57.903Z,24.30
2017-11-15T03:11:26.923Z,23.10
2017-11-15T03:13:55.187Z,23.17
2017-11-15T03:16:23.454Z,22.33
2017-11-15T03:18:51.687Z,20.73
2017-11-15T03:21:20.451Z,20.47
2017-11-15T03:23:48.696Z,19.40
2017-11-15T03:26:16.939Z,21.37
2017-11-15T03:28:45.211Z,21.47
2017-11-15T03:31:13.469Z,21.60
2017-11-15T03:33:41.720Z,17.30
2017-11-15T03:36:10.008Z,21.10
2017-11-15T03:38:38.240Z,22.10
2017-11-15T03:41:06.487Z,20.17
2017-11-15T03:43:34.955Z,21.60
2017-11-15T03:46:03.460Z,20.30
2017-11-15T03:48:31.708Z,19.97
2017-11-15T03:50:59.971Z,19.77
2017-11-15T03:53:28.223Z,23.00
2017-11-15T03:55:56.466Z,19.83
2017-11-15T03:58:24.740Z,21.27
2017-11-15T04:00:52.984Z,20.10
2017-11-15T04:03:21.228Z,21.47
2017-11-15T04:05:49.745Z,20.00
2017-11-15T04:08:18.009Z,21.00
2017-11-15T04:10:46.255Z,20.80
2017-11-15T04:13:14.527Z,21.50
2017-11-15T04:15:43.544Z,20.70
2017-11-15T04:18:11.795Z,20.07
2017-11-15T04:20:40.060Z,18.23
2017-11-15T04:23:08.305Z,17.20
2017-11-15T04:25:36.551Z,17.83
2017-11-15T04:28:05.319Z,19.33
2017-11-15T04:30:33.566Z,20.50
2017-11-15T04:33:01.815Z,20.17
2017-11-15T04:35:30.095Z,18.97
2017-11-15T04:37:58.340Z,19.07
2017-11-15T04:40:26.583Z,21.07
2017-11-15T04:42:54.847Z,20.63
2017-11-15T04:45:23.096Z,20.77
2017-11-15T04:47:51.529Z,18.63
2017-11-15T04:50:20.756Z,20.20
2017-11-15T04:52:49.008Z,18.00
2017-11-15T04:55:18.017Z,19.70
2017-11-15T04:57:46.290Z,19.10
2017-11-15T05:00:15.300Z,18.40
2017-11-15T05:02:43.547Z,18.30
2017-11-15T05:05:11.819Z,18.33
2017-11-15T05:07:40.075Z,17.10
2017-11-15T05:10:08.325Z,17.67
2017-11-15T05:12:37.559Z,16.83
2017-11-15T05:15:05.812Z,19.60
2017-11-15T05:17:34.051Z,17.77
2017-11-15T05:20:02.662Z,17.63
2017-11-15T05:22:30.911Z,18.53
2017-11-15T05:24:59.166Z,20.33
2017-11-15T05:27:27.444Z,22.70
2017-11-15T05:29:56.442Z,19.20
2017-11-15T05:32:25.470Z,17.90
2017-11-15T05:34:53.825Z,17.90
2017-11-15T05:37:22.834Z,18.33
2017-11-15T05:39:51.080Z,18.70
2017-11-15T05:42:19.348Z,18.30
2017-11-15T05:44:47.591Z,19.20
2017-11-15T05:47:15.840Z,17.97
2017-11-15T05:49:44.420Z,16.67
2017-11-15T05:52:12.667Z,17.50
2017-11-15T05:54:40.916Z,19.23
2017-11-15T05:57:09.575Z,19.20
2017-11-15T05:59:37.826Z,18.90
2017-11-15T06:02:06.071Z,17.63
2017-11-15T06:04:34.338Z,20.13
2017-11-15T06:07:02.579Z,18.00
2017-11-15T06:09:30.939Z,17.23
2017-11-15T06:11:59.167Z,17.10
2017-11-15T06:14:27.404Z,17.60
2017-11-15T06:16:55.723Z,17.30
2017-11-15T06:19:24.414Z,17.60
2017-11-15T06:21:52.626Z,17.80
2017-11-15T06:24:20.878Z,17.27
2017-11-15T06:26:49.273Z,17.13
2017-11-15T06:29:18.298Z,19.23
2017-11-15T06:31:46.518Z,17.60
2017-11-15T06:34:14.758Z,18.10
2017-11-15T06:36:43.747Z,19.40
2017-11-15T06:39:11.971Z,18.17
2017-11-15T06:41:41.275Z,18.53
2017-11-15T06:44:10.294Z,13.73
2017-11-15T06:46:38.544Z,15.67
2017-11-15T06:49:06.811Z,15.93
2017-11-15T06:51:35.412Z,15.70
2017-11-15T06:54:04.449Z,16.00
2017-11-15T06:56:32.720Z,16.40
2017-11-15T06:59:01.018Z,15.20
2017-11-15T07:01:29.251Z,15.10
2017-11-15T07:03:57.958Z,18.10
2017-11-15T07:06:26.211Z,15.93
2017-11-15T07:08:54.455Z,16.93
2017-11-15T07:11:22.726Z,16.87
2017-11-15T07:13:50.967Z,16.27
2017-11-15T07:16:19.211Z,16.13
2017-11-15T07:18:47.479Z,17.83
2017-11-15T07:21:15.792Z,16.87
2017-11-15T07:23:44.039Z,17.33
2017-11-15T07:26:13.379Z,17.07
2017-11-15T07:28:41.632Z,17.23
2017-11-15T07:31:09.876Z,13.67
2017-11-15T07:33:42.118Z,16.57
2017-11-15T07:36:10.362Z,15.50
2017-11-15T07:38:38.608Z,16.40
2017-11-15T07:41:07.642Z,16.47
2017-11-15T07:43:35.901Z,13.23
2017-11-15T07:46:04.334Z,15.77
2017-11-15T07:48:32.904Z,17.50
2017-11-15T07:51:01.144Z,15.70
2017-11-15T07:53:29.648Z,16.73
2017-11-15T07:55:57.899Z,15.17
2017-11-15T07:58:26.148Z,17.17
2017-11-15T08:00:54.431Z,12.50
2017-11-15T08:03:22.707Z,18.00
2017-11-15T08:05:51.723Z,17.33
2017-11-15T08:08:19.976Z,15.50
2017-11-15T08:10:48.584Z,16.03
2017-11-15T08:13:16.831Z,18.03
2017-11-15T08:15:45.841Z,15.23
2017-11-15T08:18:14.873Z,18.93
2017-11-15T08:20:43.140Z,18.53
2017-11-15T08:23:11.387Z,17.63
2017-11-15T08:25:40.424Z,15.70
2017-11-15T08:28:08.658Z,15.53
2017-11-15T08:30:36.908Z,18.17
2017-11-15T08:33:05.584Z,15.60
2017-11-15T08:35:33.832Z,18.20
2017-11-15T08:38:02.176Z,16.73
2017-11-15T08:40:30.443Z,17.27
2017-11-15T08:42:58.689Z,16.10
2017-11-15T08:45:26.935Z,18.33
2017-11-15T08:47:55.207Z,16.97
2017-11-15T08:50:23.475Z,18.63
2017-11-15T08:52:51.723Z,17.43
2017-11-15T08:55:20.181Z,18.10
2017-11-15T08:57:48.426Z,17.70
2017-11-15T09:00:16.680Z,16.73
2017-11-15T09:02:44.942Z,17.07
2017-11-15T09:05:13.187Z,16.13
2017-11-15T09:07:41.447Z,17.30
2017-11-15T09:10:09.787Z,19.60
2017-11-15T09:12:38.035Z,19.40
2017-11-15T09:15:07.052Z,17.47
2017-11-15T09:17:36.588Z,18.73
2017-11-15T09:20:04.843Z,18.70
2017-11-15T09:22:33.093Z,17.53
2017-11-15T09:25:01.368Z,19.03
2017-11-15T09:27:30.384Z,18.00
2017-11-15T09:29:58.631Z,18.50
2017-11-15T09:32:26.904Z,18.97
2017-11-15T09:34:55.151Z,18.97
2017-11-15T09:37:23.397Z,20.30
2017-11-15T09:39:52.124Z,21.53
2017-11-15T09:42:20.355Z,21.00
2017-11-15T09:44:48.607Z,20.80
2017-11-15T09:47:16.884Z,21.47
2017-11-15T09:49:45.913Z,24.07
2017-11-15T09:52:14.151Z,20.90
2017-11-15T09:54:43.196Z,21.80
2017-11-15T09:57:11.727Z,22.70
2017-11-15T09:59:40.075Z,21.47
2017-11-15T10:02:08.657Z,21.43
2017-11-15T10:04:36.934Z,21.47
2017-11-15T10:07:05.168Z,21.30
2017-11-15T10:09:33.443Z,22.10
2017-11-15T10:12:02.458Z,22.73
2017-11-15T10:14:30.698Z,24.33
2017-11-15T10:17:07.334Z,26.37
2017-11-15T10:19:35.575Z,29.73
2017-11-15T10:22:03.822Z,30.57
2017-11-15T10:24:32.676Z,31.30
2017-11-15T10:27:00.915Z,30.70
2017-11-15T10:29:29.168Z,30.87
2017-11-15T10:31:57.436Z,27.07
2017-11-15T10:34:26.444Z,29.60
2017-11-15T10:36:55.456Z,28.60
2017-11-15T10:39:23.731Z,28.53
2017-11-15T10:41:51.981Z,25.47
2017-11-15T10:44:20.991Z,29.10
2017-11-15T10:46:49.364Z,28.77
2017-11-15T10:49:17.608Z,26.30
2017-11-15T10:51:45.911Z,29.40
2017-11-15T10:54:14.173Z,27.97
2017-11-15T10:56:42.411Z,29.93
2017-11-15T10:59:10.679Z,30.60
2017-11-15T11:01:38.947Z,31.03
2017-11-15T11:04:07.191Z,32.53
2017-11-15T11:06:35.471Z,33.10
2017-11-15T11:09:03.915Z,31.20
2017-11-15T11:11:32.288Z,33.80
2017-11-15T11:14:00.528Z,35.20
2017-11-15T11:16:28.802Z,32.77
2017-11-15T11:18:57.048Z,31.90
2017-11-15T11:21:25.292Z,31.93
2017-11-15T11:23:53.572Z,36.70
2017-11-15T11:26:21.929Z,35.20
2017-11-15T11:28:50.162Z,34.73
2017-11-15T11:31:19.663Z,33.63
2017-11-15T11:33:47.969Z,35.47
2017-11-15T11:36:16.225Z,35.07
2017-11-15T11:38:45.256Z,33.70
2017-11-15T11:41:13.504Z,33.30
2017-11-15T11:43:41.756Z,32.70
2017-11-15T11:46:10.023Z,28.97
2017-11-15T11:48:38.269Z,32.03
2017-11-15T11:51:06.527Z,35.10
2017-11-15T11:53:34.852Z,35.03
2017-11-15T11:56:03.096Z,35.33
2017-11-15T11:58:31.335Z,34.47
2017-11-15T12:01:00.656Z,34.43
2017-11-15T12:03:28.909Z,36.80
2017-11-15T12:05:57.365Z,32.77
2017-11-15T12:08:25.757Z,37.93
2017-11-15T12:10:53.985Z,35.93
2017-11-15T12:13:22.227Z,34.30
2017-11-15T12:15:50.707Z,37.27
2017-11-15T12:18:18.956Z,37.63
2017-11-15T12:20:47.201Z,38.80
2017-11-15T12:23:15.475Z,37.90
2017-11-15T12:25:43.723Z,36.10
2017-11-15T12:28:11.972Z,35.20
2017-11-15T12:30:41.011Z,36.80
2017-11-15T12:33:09.243Z,35.83
2017-11-15T12:35:38.251Z,37.27
2017-11-15T12:38:07.591Z,37.23
2017-11-15T12:40:35.844Z,33.20
2017-11-15T12:43:04.097Z,35.20
2017-11-15T12:45:32.370Z,34.70
2017-11-15T12:48:01.388Z,36.83
2017-11-15T12:50:30.396Z,36.03
2017-11-15T12:52:58.663Z,36.03
2017-11-15T12:55:26.915Z,36.67
2017-11-15T12:57:55.919Z,35.43
2017-11-15T13:00:25.463Z,36.30
2017-11-15T13:02:53.928Z,35.80
2017-11-15T13:05:22.344Z,35.40
2017-11-15T13:07:50.598Z,36.87
2017-11-15T13:10:18.859Z,35.23
2017-11-15T13:12:47.169Z,35.33
2017-11-15T13:15:15.512Z,35.67
2017-11-15T13:17:43.807Z,35.33
2017-11-15T13:20:12.043Z,32.07
2017-11-15T13:22:40.627Z,31.27
2017-11-15T13:25:08.872Z,29.17
2017-11-15T13:27:37.121Z,30.47
2017-11-15T13:30:05.383Z,31.30
2017-11-15T13:32:33.636Z,37.47
2017-11-15T13:35:01.885Z,29.50
2017-11-15T13:37:30.155Z,31.23
2017-11-15T13:39:58.399Z,30.67
2017-11-15T13:42:26.664Z,32.17
2017-11-15T13:44:55.367Z,32.87
2017-11-15T13:47:23.619Z,32.97
2017-11-15T13:49:51.871Z,31.40
2017-11-15T13:52:20.913Z,30.00
2017-11-15T13:54:49.156Z,30.90
2017-11-15T13:57:18.168Z,28.30
2017-11-15T13:59:46.443Z,29.70
2017-11-15T14:02:14.687Z,28.40
2017-11-15T14:04:43.891Z,32.60
2017-11-15T14:07:13.252Z,28.80
2017-11-15T14:09:41.494Z,27.80
2017-11-15T14:12:09.743Z,26.87
2017-11-15T14:14:38.020Z,27.80
2017-11-15T14:17:07.035Z,24.90
2017-11-15T14:19:35.284Z,28.07
2017-11-15T14:22:03.551Z,26.50
2017-11-15T14:24:31.806Z,28.70
2017-11-15T14:27:00.061Z,27.50
2017-11-15T14:29:28.635Z,27.37
2017-11-15T14:31:56.882Z,27.23
2017-11-15T14:34:25.119Z,27.47
2017-11-15T14:36:53.383Z,28.90
2017-11-15T14:39:21.629Z,25.67
2017-11-15T14:41:49.883Z,27.10
2017-11-15T14:44:18.910Z,26.30
2017-11-15T14:46:47.160Z,24.43
2017-11-15T14:49:15.403Z,27.47
2017-11-15T14:51:43.877Z,27.40
2017-11-15T14:54:12.114Z,26.13
2017-11-15T14:56:40.369Z,25.63
2017-11-15T14:59:08.639Z,26.50
2017-11-15T15:01:36.883Z,25.20
2017-11-15T15:04:05.127Z,26.00
2017-11-15T15:06:34.272Z,28.17
2017-11-15T15:09:02.519Z,25.33
2017-11-15T15:11:30.772Z,25.33
2017-11-15T15:13:59.086Z,28.80
2017-11-15T15:16:27.331Z,28.30
2017-11-15T15:18:55.577Z,26.80
2017-11-15T15:21:24.617Z,26.03
2017-11-15T15:23:52.855Z,27.00
2017-11-15T15:26:21.100Z,26.70
2017-11-15T15:28:49.373Z,29.57
2017-11-15T15:31:17.624Z,28.53
2017-11-15T15:33:45.887Z,28.50
2017-11-15T15:36:14.593Z,27.47
2017-11-15T15:38:42.836Z,28.27
2017-11-15T15:41:11.120Z,27.97
2017-11-15T15:43:39.376Z,28.60
2017-11-15T15:46:07.619Z,28.73
2017-11-15T15:48:35.874Z,29.60
2017-11-15T15:51:04.139Z,29.53
2017-11-15T15:53:32.389Z,29.30
2017-11-15T15:56:00.626Z,28.97
2017-11-15T15:58:29.088Z,28.00
2017-11-15T16:00:57.335Z,30.30
2017-11-15T16:03:25.577Z,31.50
2017-11-15T16:05:53.848Z,32.10
2017-11-15T16:08:22.519Z,31.97
2017-11-15T16:10:50.782Z,30.67
2017-11-15T16:13:19.035Z,30.67
2017-11-15T16:15:47.347Z,31.67
2017-11-15T16:18:15.613Z,28.30
2017-11-15T16:20:44.175Z,29.60
2017-11-15T16:23:12.420Z,27.20
2017-11-15T16:25:40.673Z,28.80
2017-11-15T16:28:08.944Z,28.43
2017-11-15T16:30:37.201Z,26.60
2017-11-15T16:33:06.219Z,27.57
2017-11-15T16:35:34.486Z,27.27
2017-11-15T16:38:02.735Z,30.10
2017-11-15T16:40:30.983Z,30.60
2017-11-15T16:42:59.642Z,27.37
2017-11-15T16:45:27.886Z,26.73
2017-11-15T16:47:56.136Z,27.20
2017-11-15T16:50:25.612Z,29.37
2017-11-15T16:52:53.860Z,26.97
2017-11-15T16:55:22.112Z,26.30
2017-11-15T16:57:50.379Z,25.80
2017-11-15T17:00:18.627Z,25.30
2017-11-15T17:02:46.888Z,26.30
2017-11-15T17:05:15.984Z,28.00
2017-11-15T17:07:44.999Z,28.00
2017-11-15T17:10:13.487Z,26.10
2017-11-15T17:12:41.759Z,25.00
2017-11-15T17:15:10.009Z,26.20
2017-11-15T17:17:39.027Z,26.90
2017-11-15T17:20:07.302Z,25.53
2017-11-15T17:22:35.543Z,27.00
2017-11-15T17:25:03.795Z,25.27
2017-11-15T17:27:32.578Z,27.20
2017-11-15T17:30:00.824Z,28.13
2017-11-15T17:32:29.072Z,26.07
2017-11-15T17:34:58.111Z,28.03
2017-11-15T17:37:26.367Z,27.20
2017-11-15T17:39:54.607Z,27.47
2017-11-15T17:42:22.907Z,28.10
2017-11-15T17:44:51.179Z,27.40
2017-11-15T17:47:20.186Z,28.00
2017-11-15T17:49:48.727Z,28.20
2017-11-15T17:52:16.976Z,29.20
2017-11-15T17:54:45.231Z,29.07
2017-11-15T17:57:13.491Z,30.00
2017-11-15T17:59:41.826Z,29.73
2017-11-15T18:02:10.063Z,30.03
2017-11-15T18:04:38.327Z,28.13
2017-11-15T18:07:06.660Z,27.67
2017-11-15T18:09:34.927Z,29.93
2017-11-15T18:12:03.431Z,30.00
2017-11-15T18:14:31.680Z,26.77
2017-11-15T18:16:59.936Z,30.30
2017-11-15T18:19:28.199Z,29.10
2017-11-15T18:21:56.527Z,30.23
2017-11-15T18:24:24.798Z,28.80
2017-11-15T18:26:53.059Z,28.27
2017-11-15T18:29:21.315Z,29.27
2017-11-15T18:31:49.572Z,28.40
2017-11-15T18:34:18.515Z,30.60
2017-11-15T18:36:46.762Z,30.40
2017-11-15T18:39:15.011Z,29.87
2017-11-15T18:41:43.290Z,27.50
2017-11-15T18:44:12.312Z,27.80
2017-11-15T18:46:40.550Z,29.70
2017-11-15T18:49:08.831Z,27.73
2017-11-15T18:51:37.080Z,29.93
2017-11-15T18:54:05.332Z,29.13
2017-11-15T18:56:33.662Z,28.00
2017-11-15T18:59:01.908Z,28.47
2017-11-15T19:01:30.159Z,29.93
2017-11-15T19:03:58.560Z,27.33
2017-11-15T19:06:27.654Z,28.57
2017-11-15T19:08:55.975Z,27.87
2017-11-15T19:11:24.471Z,28.97
2017-11-15T19:13:53.767Z,29.30
2017-11-15T19:16:22.909Z,27.23
2017-11-15T19:18:51.258Z,29.20
2017-11-15T19:21:20.712Z,28.17
2017-11-15T19:23:49.086Z,27.87
2017-11-15T19:26:17.497Z,26.80
2017-11-15T19:28:46.520Z,27.40
2017-11-15T19:31:14.838Z,27.87
2017-11-15T19:33:43.115Z,28.80
2017-11-15T19:36:11.879Z,28.63
2017-11-15T19:38:40.279Z,27.73
2017-11-15T19:41:09.039Z,29.07
2017-11-15T19:43:37.306Z,28.13
2017-11-15T19:46:05.551Z,28.17
2017-11-15T19:48:33.838Z,28.03
2017-11-15T19:51:02.842Z,27.37
2017-11-15T19:53:31.100Z,28.47
2017-11-15T19:55:59.374Z,25.50
2017-11-15T19:58:27.611Z,27.07
2017-11-15T20:00:55.854Z,29.60
2017-11-15T20:03:24.179Z,26.87
2017-11-15T20:05:52.440Z,27.97
2017-11-15T20:08:20.838Z,28.20
2017-11-15T20:10:49.127Z,28.03
2017-11-15T20:13:17.907Z,28.93
2017-11-15T20:15:46.175Z,27.23
2017-11-15T20:18:14.478Z,26.83
2017-11-15T20:20:42.727Z,26.40
2017-11-15T20:23:10.990Z,28.70
2017-11-15T20:25:39.384Z,28.07
2017-11-15T20:28:07.872Z,28.07
2017-11-15T20:30:36.119Z,28.57
2017-11-15T20:33:04.409Z,27.40
2017-11-15T20:35:32.712Z,27.37
2017-11-15T20:38:01.082Z,25.23
2017-11-15T20:40:29.496Z,26.20
2017-11-15T20:42:58.508Z,26.47
2017-11-15T20:45:26.755Z,25.87
2017-11-15T20:47:55.366Z,27.50
2017-11-15T20:50:23.779Z,27.50
2017-11-15T20:52:52.041Z,25.43
2017-11-15T20:55:20.325Z,24.70
2017-11-15T20:57:48.568Z,26.57
2017-11-15T21:00:16.816Z,27.20
2017-11-15T21:02:45.861Z,26.20
2017-11-15T21:05:14.116Z,25.83
2017-11-15T21:07:42.363Z,26.80
2017-11-15T21:10:10.710Z,27.00
2017-11-15T21:12:39.794Z,27.10
2017-11-15T21:15:08.322Z,28.47
2017-11-15T21:17:37.378Z,26.67
2017-11-15T21:20:05.659Z,28.27
2017-11-15T21:22:33.937Z,24.60
2017-11-15T21:25:02.191Z,26.20
2017-11-15T21:27:30.435Z,24.10
2017-11-15T21:29:58.684Z,25.77
2017-11-15T21:32:27.336Z,26.60
2017-11-15T21:34:55.599Z,26.47
2017-11-15T21:37:23.840Z,26.17
2017-11-15T21:39:52.883Z,25.00
2017-11-15T21:42:21.136Z,26.00
2017-11-15T21:44:49.391Z,26.43
2017-11-15T21:47:17.658Z,28.17
2017-11-15T21:49:45.907Z,28.83
2017-11-15T21:52:14.154Z,26.17
2017-11-15T21:54:42.515Z,29.80
2017-11-15T21:57:10.792Z,29.00
2017-11-15T21:59:39.795Z,29.80
2017-11-15T22:02:08.072Z,29.30
2017-11-15T22:04:36.315Z,28.30
2017-11-15T22:07:04.567Z,29.50
2017-11-15T22:09:32.847Z,26.70
2017-11-15T22:12:01.092Z,28.90
2017-11-15T22:14:29.340Z,27.03
2017-11-15T22:16:58.164Z,28.67
2017-11-15T22:19:26.431Z,27.27
2017-11-15T22:21:54.668Z,29.17
2017-11-15T22:24:22.945Z,28.60
2017-11-15T22:26:52.003Z,26.87
2017-11-15T22:29:20.247Z,29.53
2017-11-15T22:31:48.529Z,27.60
2017-11-15T22:34:17.991Z,25.57
2017-11-15T22:36:47.003Z,28.30
2017-11-15T22:39:15.626Z,27.17
2017-11-15T22:41:43.887Z,28.07
2017-11-15T22:44:12.131Z,26.20
2017-11-15T22:46:41.195Z,26.27
2017-11-15T22:49:09.476Z,25.43
2017-11-15T22:51:40.002Z,24.30
2017-11-15T22:54:08.275Z,25.97
2017-11-15T22:56:36.524Z,26.43
2017-11-15T22:59:04.768Z,26.20
2017-11-15T23:01:33.287Z,24.67
2017-11-15T23:04:01.539Z,26.20
2017-11-15T23:06:29.779Z,26.60
2017-11-15T23:08:58.051Z,26.77
2017-11-15T23:11:26.383Z,25.93
2017-11-15T23:13:54.629Z,26.00
2017-11-15T23:16:22.894Z,26.50
2017-11-15T23:18:52.047Z,25.80
2017-11-15T23:21:20.296Z,23.87
2017-11-15T23:23:50.017Z,25.87
2017-11-15T23:26:18.264Z,25.47
2017-11-15T23:28:47.287Z,25.03
2017-11-15T23:31:15.635Z,25.43
2017-11-15T23:33:44.659Z,26.30
2017-11-15T23:36:12.907Z,27.30
2017-11-15T23:38:41.382Z,25.47
2017-11-15T23:41:10.396Z,24.07
2017-11-15T23:43:38.642Z,22.33
2017-11-15T23:46:06.971Z,22.80
2017-11-15T23:48:36.416Z,20.70
2017-11-15T23:51:04.660Z,16.67
2017-11-15T23:53:32.923Z,19.23
2017-11-15T23:56:01.173Z,18.27
2017-11-15T23:58:29.424Z,20.10
